sensor_id;sensor_type;location;lat;lon;timestamp;P1;durP1;ratioP1;P2;durP2;ratioP2
14883;SDS011;7534;50.762;7.000;2024-02-04T00:00:34;0.77;;;0.60;;
14883;SDS011;7534;50.762;7.000;2024-02-04T00:03:01;0.80;;;0.80;;
14883;SDS011;7534;50.762;7.000;2024-02-04T00:05:27;0.77;;;0.77;;
14883;SDS011;7534;50.762;7.000;2024-02-04T00:07:53;0.80;;;0.80;;
14883;SDS011;7534;50.762;7.000;2024-02-04T00:10:19;0.70;;;0.70;;
14883;SDS011;7534;50.762;7.000;2024-02-04T00:12:45;0.77;;;0.77;;
14883;SDS011;7534;50.762;7.000;2024-02-04T00:15:11;0.83;;;0.80;;
14883;SDS011;7534;50.762;7.000;2024-02-04T00:17:37;0.83;;;0.80;;
14883;SDS011;7534;50.762;7.000;2024-02-04T00:20:03;0.80;;;0.80;;
14883;SDS011;7534;50.762;7.000;2024-02-04T00:22:30;1.00;;;0.90;;
14883;SDS011;7534;50.762;7.000;2024-02-04T00:24:58;1.70;;;0.90;;
14883;SDS011;7534;50.762;7.000;2024-02-04T00:27:30;0.77;;;0.60;;
14883;SDS011;7534;50.762;7.000;2024-02-04T00:29:57;1.00;;;0.70;;
14883;SDS011;7534;50.762;7.000;2024-02-04T00:32:23;1.10;;;0.90;;
14883;SDS011;7534;50.762;7.000;2024-02-04T00:34:50;1.30;;;0.70;;
14883;SDS011;7534;50.762;7.000;2024-02-04T00:37:16;0.87;;;0.87;;
14883;SDS011;7534;50.762;7.000;2024-02-04T00:39:41;0.70;;;0.70;;
14883;SDS011;7534;50.762;7.000;2024-02-04T00:42:07;0.50;;;0.50;;
14883;SDS011;7534;50.762;7.000;2024-02-04T00:44:33;1.13;;;0.67;;
14883;SDS011;7534;50.762;7.000;2024-02-04T00:46:58;0.63;;;0.63;;
14883;SDS011;7534;50.762;7.000;2024-02-04T00:49:24;0.60;;;0.50;;
14883;SDS011;7534;50.762;7.000;2024-02-04T00:51:51;0.63;;;0.60;;
14883;SDS011;7534;50.762;7.000;2024-02-04T00:54:17;0.60;;;0.60;;
14883;SDS011;7534;50.762;7.000;2024-02-04T00:56:43;0.50;;;0.50;;
14883;SDS011;7534;50.762;7.000;2024-02-04T00:59:08;0.87;;;0.60;;
14883;SDS011;7534;50.762;7.000;2024-02-04T01:01:35;0.60;;;0.60;;
14883;SDS011;7534;50.762;7.000;2024-02-04T01:04:00;1.00;;;0.50;;
14883;SDS011;7534;50.762;7.000;2024-02-04T01:06:26;0.87;;;0.87;;
14883;SDS011;7534;50.762;7.000;2024-02-04T01:08:53;0.80;;;0.60;;
14883;SDS011;7534;50.762;7.000;2024-02-04T01:11:18;0.93;;;0.60;;
14883;SDS011;7534;50.762;7.000;2024-02-04T01:13:44;0.77;;;0.77;;
14883;SDS011;7534;50.762;7.000;2024-02-04T01:16:10;0.97;;;0.77;;
14883;SDS011;7534;50.762;7.000;2024-02-04T01:18:35;1.03;;;0.53;;
14883;SDS011;7534;50.762;7.000;2024-02-04T01:21:01;0.50;;;0.50;;
14883;SDS011;7534;50.762;7.000;2024-02-04T01:23:27;0.57;;;0.57;;
14883;SDS011;7534;50.762;7.000;2024-02-04T01:25:52;0.90;;;0.60;;
14883;SDS011;7534;50.762;7.000;2024-02-04T01:28:18;0.60;;;0.60;;
14883;SDS011;7534;50.762;7.000;2024-02-04T01:30:44;0.90;;;0.47;;
14883;SDS011;7534;50.762;7.000;2024-02-04T01:33:10;0.43;;;0.43;;
14883;SDS011;7534;50.762;7.000;2024-02-04T01:35:35;0.60;;;0.60;;
14883;SDS011;7534;50.762;7.000;2024-02-04T01:38:01;0.77;;;0.50;;
14883;SDS011;7534;50.762;7.000;2024-02-04T01:40:27;0.63;;;0.50;;
14883;SDS011;7534;50.762;7.000;2024-02-04T01:42:52;0.60;;;0.60;;
14883;SDS011;7534;50.762;7.000;2024-02-04T01:45:18;0.33;;;0.33;;
14883;SDS011;7534;50.762;7.000;2024-02-04T01:47:44;0.47;;;0.47;;
14883;SDS011;7534;50.762;7.000;2024-02-04T01:50:10;0.40;;;0.40;;
14883;SDS011;7534;50.762;7.000;2024-02-04T01:52:36;0.40;;;0.40;;
14883;SDS011;7534;50.762;7.000;2024-02-04T01:55:05;0.83;;;0.50;;
14883;SDS011;7534;50.762;7.000;2024-02-04T01:57:34;0.50;;;0.50;;
14883;SDS011;7534;50.762;7.000;2024-02-04T02:00:00;0.40;;;0.40;;
14883;SDS011;7534;50.762;7.000;2024-02-04T02:02:25;0.43;;;0.43;;
14883;SDS011;7534;50.762;7.000;2024-02-04T02:04:51;2.20;;;1.33;;
14883;SDS011;7534;50.762;7.000;2024-02-04T02:07:17;0.47;;;0.47;;
14883;SDS011;7534;50.762;7.000;2024-02-04T02:09:46;0.73;;;0.40;;
14883;SDS011;7534;50.762;7.000;2024-02-04T02:12:13;0.40;;;0.40;;
14883;SDS011;7534;50.762;7.000;2024-02-04T02:14:48;0.43;;;0.43;;
14883;SDS011;7534;50.762;7.000;2024-02-04T02:18:04;0.77;;;0.30;;
14883;SDS011;7534;50.762;7.000;2024-02-04T02:24:03;1.03;;;0.50;;
14883;SDS011;7534;50.762;7.000;2024-02-04T02:26:40;0.40;;;0.40;;
14883;SDS011;7534;50.762;7.000;2024-02-04T02:29:06;0.57;;;0.40;;
14883;SDS011;7534;50.762;7.000;2024-02-04T02:31:35;1.10;;;0.40;;
14883;SDS011;7534;50.762;7.000;2024-02-04T02:34:02;0.40;;;0.40;;
14883;SDS011;7534;50.762;7.000;2024-02-04T02:36:29;1.07;;;0.40;;
14883;SDS011;7534;50.762;7.000;2024-02-04T02:39:00;0.50;;;0.50;;
14883;SDS011;7534;50.762;7.000;2024-02-04T02:41:55;0.40;;;0.40;;
14883;SDS011;7534;50.762;7.000;2024-02-04T02:44:27;0.30;;;0.30;;
14883;SDS011;7534;50.762;7.000;2024-02-04T02:46:54;0.37;;;0.37;;
14883;SDS011;7534;50.762;7.000;2024-02-04T02:49:22;0.40;;;0.40;;
14883;SDS011;7534;50.762;7.000;2024-02-04T02:51:48;0.53;;;0.43;;
14883;SDS011;7534;50.762;7.000;2024-02-04T02:54:13;0.67;;;0.43;;
14883;SDS011;7534;50.762;7.000;2024-02-04T02:56:39;1.17;;;0.50;;
14883;SDS011;7534;50.762;7.000;2024-02-04T02:59:05;0.40;;;0.40;;
14883;SDS011;7534;50.762;7.000;2024-02-04T03:01:30;0.43;;;0.40;;
14883;SDS011;7534;50.762;7.000;2024-02-04T03:03:56;0.30;;;0.30;;
14883;SDS011;7534;50.762;7.000;2024-02-04T03:06:22;0.50;;;0.50;;
14883;SDS011;7534;50.762;7.000;2024-02-04T03:08:48;3.00;;;0.77;;
14883;SDS011;7534;50.762;7.000;2024-02-04T03:11:13;0.50;;;0.40;;
14883;SDS011;7534;50.762;7.000;2024-02-04T03:13:39;0.50;;;0.50;;
14883;SDS011;7534;50.762;7.000;2024-02-04T03:16:11;0.87;;;0.60;;
14883;SDS011;7534;50.762;7.000;2024-02-04T03:18:41;0.50;;;0.50;;
14883;SDS011;7534;50.762;7.000;2024-02-04T03:21:11;0.40;;;0.40;;
14883;SDS011;7534;50.762;7.000;2024-02-04T03:23:38;0.50;;;0.50;;
14883;SDS011;7534;50.762;7.000;2024-02-04T03:26:05;0.50;;;0.50;;
14883;SDS011;7534;50.762;7.000;2024-02-04T03:28:31;0.67;;;0.67;;
14883;SDS011;7534;50.762;7.000;2024-02-04T03:30:56;1.07;;;0.60;;
14883;SDS011;7534;50.762;7.000;2024-02-04T03:33:22;0.87;;;0.70;;
14883;SDS011;7534;50.762;7.000;2024-02-04T03:35:48;0.50;;;0.50;;
14883;SDS011;7534;50.762;7.000;2024-02-04T03:38:13;1.13;;;0.60;;
14883;SDS011;7534;50.762;7.000;2024-02-04T03:40:39;0.57;;;0.50;;
14883;SDS011;7534;50.762;7.000;2024-02-04T03:43:08;0.87;;;0.53;;
14883;SDS011;7534;50.762;7.000;2024-02-04T03:45:35;1.67;;;0.80;;
14883;SDS011;7534;50.762;7.000;2024-02-04T03:48:01;1.50;;;0.60;;
14883;SDS011;7534;50.762;7.000;2024-02-04T03:50:27;0.50;;;0.40;;
14883;SDS011;7534;50.762;7.000;2024-02-04T03:52:53;0.60;;;0.60;;
14883;SDS011;7534;50.762;7.000;2024-02-04T03:55:18;0.70;;;0.70;;
14883;SDS011;7534;50.762;7.000;2024-02-04T03:57:44;0.67;;;0.67;;
14883;SDS011;7534;50.762;7.000;2024-02-04T04:00:10;0.80;;;0.70;;
14883;SDS011;7534;50.762;7.000;2024-02-04T04:02:37;0.60;;;0.60;;
14883;SDS011;7534;50.762;7.000;2024-02-04T04:05:02;0.60;;;0.60;;
14883;SDS011;7534;50.762;7.000;2024-02-04T04:07:28;0.80;;;0.80;;
14883;SDS011;7534;50.762;7.000;2024-02-04T04:09:54;0.80;;;0.80;;
14883;SDS011;7534;50.762;7.000;2024-02-04T04:12:20;0.83;;;0.83;;
14883;SDS011;7534;50.762;7.000;2024-02-04T04:14:45;1.47;;;0.90;;
14883;SDS011;7534;50.762;7.000;2024-02-04T04:17:11;1.10;;;1.00;;
14883;SDS011;7534;50.762;7.000;2024-02-04T04:19:38;1.00;;;1.00;;
14883;SDS011;7534;50.762;7.000;2024-02-04T04:22:04;1.10;;;1.00;;
14883;SDS011;7534;50.762;7.000;2024-02-04T04:24:30;1.10;;;1.00;;
14883;SDS011;7534;50.762;7.000;2024-02-04T04:26:55;1.30;;;1.20;;
14883;SDS011;7534;50.762;7.000;2024-02-04T04:29:21;1.30;;;1.20;;
14883;SDS011;7534;50.762;7.000;2024-02-04T04:31:47;1.10;;;1.10;;
14883;SDS011;7534;50.762;7.000;2024-02-04T04:34:13;1.30;;;1.20;;
14883;SDS011;7534;50.762;7.000;2024-02-04T04:36:39;1.30;;;1.20;;
14883;SDS011;7534;50.762;7.000;2024-02-04T04:39:04;1.30;;;1.20;;
14883;SDS011;7534;50.762;7.000;2024-02-04T04:41:30;1.30;;;1.20;;
14883;SDS011;7534;50.762;7.000;2024-02-04T04:43:56;1.40;;;1.30;;
14883;SDS011;7534;50.762;7.000;2024-02-04T04:46:22;1.10;;;1.10;;
14883;SDS011;7534;50.762;7.000;2024-02-04T04:48:47;1.27;;;1.17;;
14883;SDS011;7534;50.762;7.000;2024-02-04T04:51:13;1.60;;;1.37;;
14883;SDS011;7534;50.762;7.000;2024-02-04T04:53:39;1.13;;;1.13;;
14883;SDS011;7534;50.762;7.000;2024-02-04T04:56:04;1.40;;;1.30;;
14883;SDS011;7534;50.762;7.000;2024-02-04T04:58:31;1.50;;;1.40;;
14883;SDS011;7534;50.762;7.000;2024-02-04T05:00:57;1.60;;;1.50;;
14883;SDS011;7534;50.762;7.000;2024-02-04T05:03:22;2.07;;;1.87;;
14883;SDS011;7534;50.762;7.000;2024-02-04T05:05:48;2.23;;;1.80;;
14883;SDS011;7534;50.762;7.000;2024-02-04T05:08:14;2.13;;;2.00;;
14883;SDS011;7534;50.762;7.000;2024-02-04T05:10:40;2.20;;;2.00;;
14883;SDS011;7534;50.762;7.000;2024-02-04T05:13:07;4.30;;;2.23;;
14883;SDS011;7534;50.762;7.000;2024-02-04T05:15:33;2.30;;;2.10;;
14883;SDS011;7534;50.762;7.000;2024-02-04T05:18:01;2.57;;;2.37;;
14883;SDS011;7534;50.762;7.000;2024-02-04T05:20:27;2.50;;;2.30;;
14883;SDS011;7534;50.762;7.000;2024-02-04T05:22:53;2.67;;;2.47;;
14883;SDS011;7534;50.762;7.000;2024-02-04T05:25:22;2.70;;;2.50;;
14883;SDS011;7534;50.762;7.000;2024-02-04T05:27:47;3.00;;;2.80;;
14883;SDS011;7534;50.762;7.000;2024-02-04T05:30:13;3.10;;;2.80;;
14883;SDS011;7534;50.762;7.000;2024-02-04T05:32:40;3.20;;;2.90;;
14883;SDS011;7534;50.762;7.000;2024-02-04T05:35:07;4.37;;;2.60;;
14883;SDS011;7534;50.762;7.000;2024-02-04T05:37:33;3.10;;;2.80;;
14883;SDS011;7534;50.762;7.000;2024-02-04T05:39:59;3.03;;;2.53;;
14883;SDS011;7534;50.762;7.000;2024-02-04T05:42:25;2.70;;;2.50;;
14883;SDS011;7534;50.762;7.000;2024-02-04T05:44:51;2.70;;;2.50;;
14883;SDS011;7534;50.762;7.000;2024-02-04T05:47:17;3.10;;;2.80;;
14883;SDS011;7534;50.762;7.000;2024-02-04T05:49:43;3.10;;;2.67;;
14883;SDS011;7534;50.762;7.000;2024-02-04T05:52:09;3.27;;;2.97;;
14883;SDS011;7534;50.762;7.000;2024-02-04T05:54:38;3.20;;;2.97;;
14883;SDS011;7534;50.762;7.000;2024-02-04T05:57:06;2.90;;;2.70;;
14883;SDS011;7534;50.762;7.000;2024-02-04T05:59:35;3.03;;;2.80;;
14883;SDS011;7534;50.762;7.000;2024-02-04T06:02:01;5.00;;;3.00;;
14883;SDS011;7534;50.762;7.000;2024-02-04T06:04:26;3.33;;;3.03;;
14883;SDS011;7534;50.762;7.000;2024-02-04T06:06:54;3.17;;;2.90;;
14883;SDS011;7534;50.762;7.000;2024-02-04T06:09:20;3.20;;;2.90;;
14883;SDS011;7534;50.762;7.000;2024-02-04T06:11:45;3.37;;;2.93;;
14883;SDS011;7534;50.762;7.000;2024-02-04T06:14:12;3.13;;;2.93;;
14883;SDS011;7534;50.762;7.000;2024-02-04T06:16:38;3.33;;;3.03;;
14883;SDS011;7534;50.762;7.000;2024-02-04T06:19:03;3.27;;;2.97;;
14883;SDS011;7534;50.762;7.000;2024-02-04T06:21:30;2.83;;;2.63;;
14883;SDS011;7534;50.762;7.000;2024-02-04T06:23:55;2.90;;;2.60;;
14883;SDS011;7534;50.762;7.000;2024-02-04T06:26:21;2.93;;;2.53;;
14883;SDS011;7534;50.762;7.000;2024-02-04T06:28:47;3.23;;;2.93;;
14883;SDS011;7534;50.762;7.000;2024-02-04T06:31:14;2.50;;;2.30;;
14883;SDS011;7534;50.762;7.000;2024-02-04T06:33:39;2.40;;;2.20;;
14883;SDS011;7534;50.762;7.000;2024-02-04T06:36:14;2.50;;;2.30;;
14883;SDS011;7534;50.762;7.000;2024-02-04T06:38:40;3.67;;;2.43;;
14883;SDS011;7534;50.762;7.000;2024-02-04T06:41:05;2.10;;;1.80;;
14883;SDS011;7534;50.762;7.000;2024-02-04T06:43:31;2.20;;;1.80;;
14883;SDS011;7534;50.762;7.000;2024-02-04T06:45:57;1.77;;;1.40;;
14883;SDS011;7534;50.762;7.000;2024-02-04T06:48:23;1.30;;;1.20;;
14883;SDS011;7534;50.762;7.000;2024-02-04T06:50:48;1.27;;;1.03;;
14883;SDS011;7534;50.762;7.000;2024-02-04T06:53:14;2.00;;;1.00;;
14883;SDS011;7534;50.762;7.000;2024-02-04T06:55:40;1.23;;;1.00;;
14883;SDS011;7534;50.762;7.000;2024-02-04T06:58:06;1.23;;;1.23;;
14883;SDS011;7534;50.762;7.000;2024-02-04T07:00:31;1.43;;;1.00;;
14883;SDS011;7534;50.762;7.000;2024-02-04T07:02:57;0.80;;;0.80;;
14883;SDS011;7534;50.762;7.000;2024-02-04T07:05:23;1.43;;;0.80;;
14883;SDS011;7534;50.762;7.000;2024-02-04T07:07:49;0.83;;;0.70;;
14883;SDS011;7534;50.762;7.000;2024-02-04T07:10:15;0.60;;;0.60;;
14883;SDS011;7534;50.762;7.000;2024-02-04T07:12:42;0.77;;;0.77;;
14883;SDS011;7534;50.762;7.000;2024-02-04T07:15:08;0.50;;;0.50;;
14883;SDS011;7534;50.762;7.000;2024-02-04T07:17:34;0.60;;;0.60;;
14883;SDS011;7534;50.762;7.000;2024-02-04T07:20:01;0.50;;;0.50;;
14883;SDS011;7534;50.762;7.000;2024-02-04T07:22:27;0.53;;;0.47;;
14883;SDS011;7534;50.762;7.000;2024-02-04T07:24:53;0.57;;;0.57;;
14883;SDS011;7534;50.762;7.000;2024-02-04T07:27:19;0.70;;;0.70;;
14883;SDS011;7534;50.762;7.000;2024-02-04T07:29:45;0.63;;;0.63;;
14883;SDS011;7534;50.762;7.000;2024-02-04T07:32:12;2.17;;;0.80;;
14883;SDS011;7534;50.762;7.000;2024-02-04T07:34:39;1.17;;;0.50;;
14883;SDS011;7534;50.762;7.000;2024-02-04T07:37:05;0.93;;;0.60;;
14883;SDS011;7534;50.762;7.000;2024-02-04T07:39:31;0.60;;;0.60;;
14883;SDS011;7534;50.762;7.000;2024-02-04T07:41:57;1.00;;;0.70;;
14883;SDS011;7534;50.762;7.000;2024-02-04T07:44:26;0.77;;;0.77;;
14883;SDS011;7534;50.762;7.000;2024-02-04T07:46:53;1.03;;;0.90;;
14883;SDS011;7534;50.762;7.000;2024-02-04T07:49:18;0.80;;;0.80;;
14883;SDS011;7534;50.762;7.000;2024-02-04T07:51:44;0.70;;;0.70;;
14883;SDS011;7534;50.762;7.000;2024-02-04T07:54:10;0.70;;;0.70;;
14883;SDS011;7534;50.762;7.000;2024-02-04T07:56:36;0.40;;;0.40;;
14883;SDS011;7534;50.762;7.000;2024-02-04T07:59:02;0.70;;;0.57;;
14883;SDS011;7534;50.762;7.000;2024-02-04T08:01:28;0.60;;;0.60;;
14883;SDS011;7534;50.762;7.000;2024-02-04T08:03:54;0.40;;;0.40;;
14883;SDS011;7534;50.762;7.000;2024-02-04T08:06:20;0.80;;;0.60;;
14883;SDS011;7534;50.762;7.000;2024-02-04T08:08:46;1.07;;;0.70;;
14883;SDS011;7534;50.762;7.000;2024-02-04T08:11:15;0.60;;;0.60;;
14883;SDS011;7534;50.762;7.000;2024-02-04T08:13:42;0.73;;;0.73;;
14883;SDS011;7534;50.762;7.000;2024-02-04T08:16:09;0.70;;;0.70;;
14883;SDS011;7534;50.762;7.000;2024-02-04T08:18:35;0.93;;;0.90;;
14883;SDS011;7534;50.762;7.000;2024-02-04T08:21:01;0.67;;;0.67;;
14883;SDS011;7534;50.762;7.000;2024-02-04T08:23:27;1.03;;;0.60;;
14883;SDS011;7534;50.762;7.000;2024-02-04T08:25:53;0.60;;;0.60;;
14883;SDS011;7534;50.762;7.000;2024-02-04T08:28:19;1.43;;;0.70;;
14883;SDS011;7534;50.762;7.000;2024-02-04T08:30:45;0.80;;;0.80;;
14883;SDS011;7534;50.762;7.000;2024-02-04T08:33:11;0.63;;;0.63;;
14883;SDS011;7534;50.762;7.000;2024-02-04T08:35:37;0.77;;;0.77;;
14883;SDS011;7534;50.762;7.000;2024-02-04T08:38:02;0.70;;;0.70;;
14883;SDS011;7534;50.762;7.000;2024-02-04T08:40:28;0.90;;;0.90;;
14883;SDS011;7534;50.762;7.000;2024-02-04T08:42:54;1.00;;;0.80;;
14883;SDS011;7534;50.762;7.000;2024-02-04T08:45:19;3.23;;;0.80;;
14883;SDS011;7534;50.762;7.000;2024-02-04T08:47:45;0.70;;;0.70;;
14883;SDS011;7534;50.762;7.000;2024-02-04T08:50:11;0.73;;;0.73;;
14883;SDS011;7534;50.762;7.000;2024-02-04T08:52:37;0.70;;;0.70;;
14883;SDS011;7534;50.762;7.000;2024-02-04T08:55:03;1.00;;;0.80;;
14883;SDS011;7534;50.762;7.000;2024-02-04T08:57:29;0.70;;;0.70;;
14883;SDS011;7534;50.762;7.000;2024-02-04T08:59:55;0.80;;;0.80;;
14883;SDS011;7534;50.762;7.000;2024-02-04T09:02:21;0.70;;;0.70;;
14883;SDS011;7534;50.762;7.000;2024-02-04T09:04:46;0.73;;;0.73;;
14883;SDS011;7534;50.762;7.000;2024-02-04T09:07:12;0.70;;;0.70;;
14883;SDS011;7534;50.762;7.000;2024-02-04T09:09:38;0.40;;;0.40;;
14883;SDS011;7534;50.762;7.000;2024-02-04T09:12:04;3.83;;;1.00;;
14883;SDS011;7534;50.762;7.000;2024-02-04T09:14:30;0.60;;;0.60;;
14883;SDS011;7534;50.762;7.000;2024-02-04T09:16:56;1.80;;;0.80;;
14883;SDS011;7534;50.762;7.000;2024-02-04T09:19:22;0.83;;;0.83;;
14883;SDS011;7534;50.762;7.000;2024-02-04T09:21:49;0.70;;;0.70;;
14883;SDS011;7534;50.762;7.000;2024-02-04T09:24:15;0.70;;;0.70;;
14883;SDS011;7534;50.762;7.000;2024-02-04T09:26:40;0.70;;;0.70;;
14883;SDS011;7534;50.762;7.000;2024-02-04T09:29:06;0.70;;;0.70;;
14883;SDS011;7534;50.762;7.000;2024-02-04T09:31:32;1.03;;;0.70;;
14883;SDS011;7534;50.762;7.000;2024-02-04T09:33:57;0.70;;;0.70;;
14883;SDS011;7534;50.762;7.000;2024-02-04T09:36:23;0.70;;;0.70;;
14883;SDS011;7534;50.762;7.000;2024-02-04T09:38:49;0.50;;;0.50;;
14883;SDS011;7534;50.762;7.000;2024-02-04T09:41:14;0.70;;;0.70;;
14883;SDS011;7534;50.762;7.000;2024-02-04T09:43:40;0.80;;;0.60;;
14883;SDS011;7534;50.762;7.000;2024-02-04T09:46:06;0.70;;;0.70;;
14883;SDS011;7534;50.762;7.000;2024-02-04T09:48:32;0.60;;;0.60;;
14883;SDS011;7534;50.762;7.000;2024-02-04T09:50:59;0.60;;;0.60;;
14883;SDS011;7534;50.762;7.000;2024-02-04T09:53:34;1.37;;;0.50;;
14883;SDS011;7534;50.762;7.000;2024-02-04T09:56:01;0.40;;;0.40;;
14883;SDS011;7534;50.762;7.000;2024-02-04T09:58:31;0.60;;;0.60;;
14883;SDS011;7534;50.762;7.000;2024-02-04T10:00:57;0.70;;;0.70;;
14883;SDS011;7534;50.762;7.000;2024-02-04T10:03:25;0.70;;;0.70;;
14883;SDS011;7534;50.762;7.000;2024-02-04T10:05:51;1.40;;;0.80;;
14883;SDS011;7534;50.762;7.000;2024-02-04T10:08:16;0.70;;;0.70;;
14883;SDS011;7534;50.762;7.000;2024-02-04T10:10:42;0.60;;;0.60;;
14883;SDS011;7534;50.762;7.000;2024-02-04T10:13:08;0.70;;;0.70;;
14883;SDS011;7534;50.762;7.000;2024-02-04T10:15:34;0.57;;;0.57;;
14883;SDS011;7534;50.762;7.000;2024-02-04T10:18:07;0.50;;;0.50;;
14883;SDS011;7534;50.762;7.000;2024-02-04T10:20:33;0.60;;;0.60;;
14883;SDS011;7534;50.762;7.000;2024-02-04T10:22:59;0.57;;;0.57;;
14883;SDS011;7534;50.762;7.000;2024-02-04T10:25:25;0.60;;;0.60;;
14883;SDS011;7534;50.762;7.000;2024-02-04T10:27:52;0.80;;;0.50;;
14883;SDS011;7534;50.762;7.000;2024-02-04T10:30:19;0.80;;;0.60;;
14883;SDS011;7534;50.762;7.000;2024-02-04T10:32:47;0.50;;;0.50;;
14883;SDS011;7534;50.762;7.000;2024-02-04T10:35:16;0.93;;;0.60;;
14883;SDS011;7534;50.762;7.000;2024-02-04T10:37:44;0.60;;;0.60;;
14883;SDS011;7534;50.762;7.000;2024-02-04T10:40:10;0.80;;;0.80;;
14883;SDS011;7534;50.762;7.000;2024-02-04T10:42:36;0.80;;;0.80;;
14883;SDS011;7534;50.762;7.000;2024-02-04T10:45:06;0.87;;;0.67;;
14883;SDS011;7534;50.762;7.000;2024-02-04T10:47:36;0.73;;;0.73;;
14883;SDS011;7534;50.762;7.000;2024-02-04T10:50:03;0.67;;;0.67;;
14883;SDS011;7534;50.762;7.000;2024-02-04T10:52:37;0.80;;;0.80;;
14883;SDS011;7534;50.762;7.000;2024-02-04T10:55:10;0.83;;;0.83;;
14883;SDS011;7534;50.762;7.000;2024-02-04T10:57:40;1.47;;;0.60;;
14883;SDS011;7534;50.762;7.000;2024-02-04T11:00:06;0.70;;;0.70;;
14883;SDS011;7534;50.762;7.000;2024-02-04T11:02:36;0.50;;;0.50;;
14883;SDS011;7534;50.762;7.000;2024-02-04T11:05:04;1.53;;;0.50;;
14883;SDS011;7534;50.762;7.000;2024-02-04T11:07:34;0.73;;;0.73;;
14883;SDS011;7534;50.762;7.000;2024-02-04T11:10:00;0.60;;;0.60;;
14883;SDS011;7534;50.762;7.000;2024-02-04T11:12:27;0.50;;;0.47;;
14883;SDS011;7534;50.762;7.000;2024-02-04T11:14:58;0.90;;;0.90;;
14883;SDS011;7534;50.762;7.000;2024-02-04T11:26:32;0.67;;;0.67;;
14883;SDS011;7534;50.762;7.000;2024-02-04T11:29:00;0.60;;;0.60;;
14883;SDS011;7534;50.762;7.000;2024-02-04T11:31:28;0.50;;;0.50;;
14883;SDS011;7534;50.762;7.000;2024-02-04T11:33:55;0.57;;;0.50;;
14883;SDS011;7534;50.762;7.000;2024-02-04T11:36:24;0.70;;;0.70;;
14883;SDS011;7534;50.762;7.000;2024-02-04T11:38:50;0.70;;;0.70;;
14883;SDS011;7534;50.762;7.000;2024-02-04T11:41:23;0.70;;;0.70;;
14883;SDS011;7534;50.762;7.000;2024-02-04T11:43:53;0.70;;;0.70;;
14883;SDS011;7534;50.762;7.000;2024-02-04T11:46:21;0.80;;;0.80;;
14883;SDS011;7534;50.762;7.000;2024-02-04T11:48:53;1.10;;;1.00;;
14883;SDS011;7534;50.762;7.000;2024-02-04T11:51:22;0.90;;;0.90;;
14883;SDS011;7534;50.762;7.000;2024-02-04T11:53:49;0.80;;;0.80;;
14883;SDS011;7534;50.762;7.000;2024-02-04T11:56:17;1.53;;;0.90;;
14883;SDS011;7534;50.762;7.000;2024-02-04T11:58:44;0.80;;;0.80;;
14883;SDS011;7534;50.762;7.000;2024-02-04T12:01:10;1.20;;;0.90;;
14883;SDS011;7534;50.762;7.000;2024-02-04T12:03:36;0.80;;;0.80;;
14883;SDS011;7534;50.762;7.000;2024-02-04T12:06:02;0.77;;;0.70;;
14883;SDS011;7534;50.762;7.000;2024-02-04T12:08:32;0.80;;;0.80;;
14883;SDS011;7534;50.762;7.000;2024-02-04T12:10:59;0.70;;;0.70;;
14883;SDS011;7534;50.762;7.000;2024-02-04T12:13:27;0.77;;;0.77;;
14883;SDS011;7534;50.762;7.000;2024-02-04T12:15:54;0.97;;;0.80;;
14883;SDS011;7534;50.762;7.000;2024-02-04T12:18:20;0.60;;;0.60;;
14883;SDS011;7534;50.762;7.000;2024-02-04T12:20:46;0.70;;;0.70;;
14883;SDS011;7534;50.762;7.000;2024-02-04T12:23:16;1.00;;;0.77;;
14883;SDS011;7534;50.762;7.000;2024-02-04T12:25:43;0.60;;;0.60;;
14883;SDS011;7534;50.762;7.000;2024-02-04T12:28:09;0.63;;;0.63;;
14883;SDS011;7534;50.762;7.000;2024-02-04T12:30:35;0.73;;;0.73;;
14883;SDS011;7534;50.762;7.000;2024-02-04T12:33:02;0.80;;;0.80;;
14883;SDS011;7534;50.762;7.000;2024-02-04T12:35:30;0.53;;;0.53;;
14883;SDS011;7534;50.762;7.000;2024-02-04T12:37:57;0.67;;;0.67;;
14883;SDS011;7534;50.762;7.000;2024-02-04T12:40:28;1.27;;;0.73;;
14883;SDS011;7534;50.762;7.000;2024-02-04T12:43:04;0.70;;;0.70;;
14883;SDS011;7534;50.762;7.000;2024-02-04T12:45:29;0.70;;;0.70;;
14883;SDS011;7534;50.762;7.000;2024-02-04T12:47:57;0.97;;;0.90;;
14883;SDS011;7534;50.762;7.000;2024-02-04T12:50:23;0.70;;;0.70;;
14883;SDS011;7534;50.762;7.000;2024-02-04T12:53:01;0.70;;;0.70;;
14883;SDS011;7534;50.762;7.000;2024-02-04T12:55:32;0.70;;;0.70;;
14883;SDS011;7534;50.762;7.000;2024-02-04T12:58:05;0.70;;;0.70;;
14883;SDS011;7534;50.762;7.000;2024-02-04T13:00:40;0.70;;;0.70;;
14883;SDS011;7534;50.762;7.000;2024-02-04T13:03:07;1.07;;;1.00;;
14883;SDS011;7534;50.762;7.000;2024-02-04T13:05:34;0.70;;;0.70;;
14883;SDS011;7534;50.762;7.000;2024-02-04T13:08:01;0.93;;;0.90;;
14883;SDS011;7534;50.762;7.000;2024-02-04T13:10:32;0.80;;;0.80;;
14883;SDS011;7534;50.762;7.000;2024-02-04T13:13:06;0.70;;;0.70;;
14883;SDS011;7534;50.762;7.000;2024-02-04T13:15:36;0.80;;;0.80;;
14883;SDS011;7534;50.762;7.000;2024-02-04T13:18:04;0.83;;;0.83;;
14883;SDS011;7534;50.762;7.000;2024-02-04T13:20:30;0.80;;;0.80;;
14883;SDS011;7534;50.762;7.000;2024-02-04T13:22:55;0.90;;;0.90;;
14883;SDS011;7534;50.762;7.000;2024-02-04T13:25:24;0.90;;;0.90;;
14883;SDS011;7534;50.762;7.000;2024-02-04T13:27:50;0.90;;;0.90;;
14883;SDS011;7534;50.762;7.000;2024-02-04T13:30:17;1.00;;;0.88;;
14883;SDS011;7534;50.762;7.000;2024-02-04T13:32:44;1.30;;;1.20;;
14883;SDS011;7534;50.762;7.000;2024-02-04T13:35:10;0.90;;;0.90;;
14883;SDS011;7534;50.762;7.000;2024-02-04T13:37:36;1.10;;;1.00;;
14883;SDS011;7534;50.762;7.000;2024-02-04T13:40:07;0.80;;;0.70;;
14883;SDS011;7534;50.762;7.000;2024-02-04T13:42:35;0.80;;;0.80;;
14883;SDS011;7534;50.762;7.000;2024-02-04T13:45:01;1.23;;;1.00;;
14883;SDS011;7534;50.762;7.000;2024-02-04T13:47:28;1.00;;;1.00;;
14883;SDS011;7534;50.762;7.000;2024-02-04T13:49:54;0.90;;;0.90;;
14883;SDS011;7534;50.762;7.000;2024-02-04T13:52:20;1.03;;;0.93;;
14883;SDS011;7534;50.762;7.000;2024-02-04T13:54:46;2.07;;;0.77;;
14883;SDS011;7534;50.762;7.000;2024-02-04T13:57:12;0.80;;;0.80;;
14883;SDS011;7534;50.762;7.000;2024-02-04T13:59:38;0.80;;;0.80;;
14883;SDS011;7534;50.762;7.000;2024-02-04T14:02:04;0.93;;;0.80;;
14883;SDS011;7534;50.762;7.000;2024-02-04T14:04:32;1.07;;;0.90;;
14883;SDS011;7534;50.762;7.000;2024-02-04T14:06:58;1.17;;;0.90;;
14883;SDS011;7534;50.762;7.000;2024-02-04T14:09:24;1.17;;;0.70;;
14883;SDS011;7534;50.762;7.000;2024-02-04T14:11:49;0.67;;;0.67;;
14883;SDS011;7534;50.762;7.000;2024-02-04T14:14:16;0.80;;;0.80;;
14883;SDS011;7534;50.762;7.000;2024-02-04T14:16:42;0.80;;;0.80;;
14883;SDS011;7534;50.762;7.000;2024-02-04T14:19:07;0.80;;;0.80;;
14883;SDS011;7534;50.762;7.000;2024-02-04T14:21:33;0.97;;;0.97;;
14883;SDS011;7534;50.762;7.000;2024-02-04T14:23:59;1.00;;;1.00;;
14883;SDS011;7534;50.762;7.000;2024-02-04T14:26:25;1.00;;;1.00;;
14883;SDS011;7534;50.762;7.000;2024-02-04T14:28:51;0.73;;;0.73;;
14883;SDS011;7534;50.762;7.000;2024-02-04T14:31:16;0.60;;;0.60;;
14883;SDS011;7534;50.762;7.000;2024-02-04T14:33:42;0.90;;;0.90;;
14883;SDS011;7534;50.762;7.000;2024-02-04T14:36:09;0.70;;;0.70;;
14883;SDS011;7534;50.762;7.000;2024-02-04T14:38:35;0.70;;;0.70;;
14883;SDS011;7534;50.762;7.000;2024-02-04T14:41:03;0.70;;;0.70;;
14883;SDS011;7534;50.762;7.000;2024-02-04T14:43:29;0.90;;;0.90;;
14883;SDS011;7534;50.762;7.000;2024-02-04T14:45:55;0.57;;;0.53;;
14883;SDS011;7534;50.762;7.000;2024-02-04T14:48:21;2.17;;;1.40;;
14883;SDS011;7534;50.762;7.000;2024-02-04T14:50:47;1.30;;;1.20;;
14883;SDS011;7534;50.762;7.000;2024-02-04T14:53:13;1.80;;;1.30;;
14883;SDS011;7534;50.762;7.000;2024-02-04T14:55:39;1.43;;;1.33;;
14883;SDS011;7534;50.762;7.000;2024-02-04T14:58:05;1.00;;;0.90;;
14883;SDS011;7534;50.762;7.000;2024-02-04T15:00:31;1.03;;;0.80;;
14883;SDS011;7534;50.762;7.000;2024-02-04T15:02:57;0.80;;;0.80;;
14883;SDS011;7534;50.762;7.000;2024-02-04T15:05:24;1.07;;;0.80;;
14883;SDS011;7534;50.762;7.000;2024-02-04T15:07:50;0.80;;;0.80;;
14883;SDS011;7534;50.762;7.000;2024-02-04T15:10:17;0.93;;;0.87;;